sensor_id;sensor_type;location;lat;lon;timestamp;temperature;humidity
13650;DHT22;6898;50.918;4.688;2023-07-29T00:00:54;20.40;99.90
13650;DHT22;6898;50.918;4.688;2023-07-29T00:03:23;20.40;99.90
13650;DHT22;6898;50.918;4.688;2023-07-29T00:05:51;20.40;99.90
13650;DHT22;6898;50.918;4.688;2023-07-29T00:08:20;20.40;99.90
13650;DHT22;6898;50.918;4.688;2023-07-29T00:10:49;20.40;99.90
13650;DHT22;6898;50.918;4.688;2023-07-29T00:13:18;20.40;99.90
13650;DHT22;6898;50.918;4.688;2023-07-29T00:15:47;20.40;99.90
13650;DHT22;6898;50.918;4.688;2023-07-29T00:18:15;20.30;99.90
13650;DHT22;6898;50.918;4.688;2023-07-29T00:20:43;20.30;99.90
13650;DHT22;6898;50.918;4.688;2023-07-29T00:23:12;20.30;99.90
13650;DHT22;6898;50.918;4.688;2023-07-29T00:25:40;20.30;99.90
13650;DHT22;6898;50.918;4.688;2023-07-29T00:28:11;20.20;99.90
13650;DHT22;6898;50.918;4.688;2023-07-29T00:30:39;20.20;99.90
13650;DHT22;6898;50.918;4.688;2023-07-29T00:33:08;20.20;99.90
13650;DHT22;6898;50.918;4.688;2023-07-29T00:35:36;20.10;99.90
13650;DHT22;6898;50.918;4.688;2023-07-29T00:38:04;20.10;99.90
13650;DHT22;6898;50.918;4.688;2023-07-29T00:40:35;19.90;99.90
13650;DHT22;6898;50.918;4.688;2023-07-29T00:43:04;19.90;99.90
13650;DHT22;6898;50.918;4.688;2023-07-29T00:45:34;19.80;99.90
13650;DHT22;6898;50.918;4.688;2023-07-29T00:48:03;19.80;99.90
13650;DHT22;6898;50.918;4.688;2023-07-29T00:50:32;19.80;99.90
13650;DHT22;6898;50.918;4.688;2023-07-29T00:53:00;19.70;99.90
13650;DHT22;6898;50.918;4.688;2023-07-29T00:55:29;19.60;99.90
13650;DHT22;6898;50.918;4.688;2023-07-29T00:57:57;19.60;99.90
13650;DHT22;6898;50.918;4.688;2023-07-29T01:00:26;19.50;99.90
13650;DHT22;6898;50.918;4.688;2023-07-29T01:02:56;19.40;99.90
13650;DHT22;6898;50.918;4.688;2023-07-29T01:05:26;19.30;99.90
13650;DHT22;6898;50.918;4.688;2023-07-29T01:07:59;19.20;99.90
13650;DHT22;6898;50.918;4.688;2023-07-29T01:10:39;19.10;99.90
13650;DHT22;6898;50.918;4.688;2023-07-29T01:13:16;19.00;99.90
13650;DHT22;6898;50.918;4.688;2023-07-29T01:15:51;19.00;99.90
13650;DHT22;6898;50.918;4.688;2023-07-29T01:18:23;19.00;99.90
13650;DHT22;6898;50.918;4.688;2023-07-29T01:20:54;18.90;99.90
13650;DHT22;6898;50.918;4.688;2023-07-29T01:23:29;18.90;99.90
13650;DHT22;6898;50.918;4.688;2023-07-29T01:25:57;18.90;99.90
13650;DHT22;6898;50.918;4.688;2023-07-29T01:28:27;18.80;99.90
13650;DHT22;6898;50.918;4.688;2023-07-29T01:30:58;18.90;99.90
13650;DHT22;6898;50.918;4.688;2023-07-29T01:33:33;18.90;99.90
13650;DHT22;6898;50.918;4.688;2023-07-29T01:36:07;18.80;99.90
13650;DHT22;6898;50.918;4.688;2023-07-29T01:38:41;18.80;99.90
13650;DHT22;6898;50.918;4.688;2023-07-29T01:41:12;18.70;99.90
13650;DHT22;6898;50.918;4.688;2023-07-29T01:43:41;18.70;99.90
13650;DHT22;6898;50.918;4.688;2023-07-29T01:46:11;18.70;99.90
13650;DHT22;6898;50.918;4.688;2023-07-29T01:48:39;18.70;99.90
13650;DHT22;6898;50.918;4.688;2023-07-29T01:51:10;18.70;99.90
13650;DHT22;6898;50.918;4.688;2023-07-29T01:53:40;18.70;99.90
13650;DHT22;6898;50.918;4.688;2023-07-29T01:56:09;18.70;99.90
13650;DHT22;6898;50.918;4.688;2023-07-29T01:58:37;18.70;99.90
13650;DHT22;6898;50.918;4.688;2023-07-29T02:01:05;18.60;99.90
13650;DHT22;6898;50.918;4.688;2023-07-29T02:03:34;18.70;99.90
13650;DHT22;6898;50.918;4.688;2023-07-29T02:06:02;18.70;99.90
13650;DHT22;6898;50.918;4.688;2023-07-29T02:08:31;18.70;99.90
13650;DHT22;6898;50.918;4.688;2023-07-29T02:11:00;18.70;99.90
13650;DHT22;6898;50.918;4.688;2023-07-29T02:13:29;18.70;99.90
13650;DHT22;6898;50.918;4.688;2023-07-29T02:15:57;18.60;99.90
13650;DHT22;6898;50.918;4.688;2023-07-29T02:18:26;18.60;99.90
13650;DHT22;6898;50.918;4.688;2023-07-29T02:20:54;18.60;99.90
13650;DHT22;6898;50.918;4.688;2023-07-29T02:23:23;18.50;99.90
13650;DHT22;6898;50.918;4.688;2023-07-29T02:25:51;18.50;99.90
13650;DHT22;6898;50.918;4.688;2023-07-29T02:28:21;18.50;99.90
13650;DHT22;6898;50.918;4.688;2023-07-29T02:31:09;18.50;99.90
13650;DHT22;6898;50.918;4.688;2023-07-29T02:33:38;18.40;99.90
13650;DHT22;6898;50.918;4.688;2023-07-29T02:36:07;18.40;99.90
13650;DHT22;6898;50.918;4.688;2023-07-29T02:38:35;18.40;99.90
13650;DHT22;6898;50.918;4.688;2023-07-29T02:41:03;18.40;99.90
13650;DHT22;6898;50.918;4.688;2023-07-29T02:43:33;18.40;99.90
13650;DHT22;6898;50.918;4.688;2023-07-29T02:46:01;18.40;99.90
13650;DHT22;6898;50.918;4.688;2023-07-29T02:48:30;18.30;99.90
13650;DHT22;6898;50.918;4.688;2023-07-29T02:50:59;18.40;99.90
13650;DHT22;6898;50.918;4.688;2023-07-29T02:53:27;18.40;99.90
13650;DHT22;6898;50.918;4.688;2023-07-29T02:55:55;18.30;99.90
13650;DHT22;6898;50.918;4.688;2023-07-29T02:58:24;18.40;99.90
13650;DHT22;6898;50.918;4.688;2023-07-29T03:01:00;18.30;99.90
13650;DHT22;6898;50.918;4.688;2023-07-29T03:03:29;18.30;99.90
13650;DHT22;6898;50.918;4.688;2023-07-29T03:05:59;18.30;99.90
13650;DHT22;6898;50.918;4.688;2023-07-29T03:08:27;18.30;99.90
13650;DHT22;6898;50.918;4.688;2023-07-29T03:10:56;18.30;99.90
13650;DHT22;6898;50.918;4.688;2023-07-29T03:13:25;18.30;99.90
13650;DHT22;6898;50.918;4.688;2023-07-29T03:15:54;18.20;99.90
13650;DHT22;6898;50.918;4.688;2023-07-29T03:18:32;18.20;99.90
13650;DHT22;6898;50.918;4.688;2023-07-29T03:21:00;18.10;99.90
13650;DHT22;6898;50.918;4.688;2023-07-29T03:23:29;18.20;99.90
13650;DHT22;6898;50.918;4.688;2023-07-29T03:25:59;18.20;99.90
13650;DHT22;6898;50.918;4.688;2023-07-29T03:28:29;18.10;99.90
13650;DHT22;6898;50.918;4.688;2023-07-29T03:30:59;18.10;99.90
13650;DHT22;6898;50.918;4.688;2023-07-29T03:33:27;18.10;99.90
13650;DHT22;6898;50.918;4.688;2023-07-29T03:35:56;18.10;99.90
13650;DHT22;6898;50.918;4.688;2023-07-29T03:38:27;18.10;99.90
13650;DHT22;6898;50.918;4.688;2023-07-29T03:40:56;18.10;99.90
13650;DHT22;6898;50.918;4.688;2023-07-29T03:43:24;18.00;99.90
13650;DHT22;6898;50.918;4.688;2023-07-29T03:45:52;18.00;99.90
13650;DHT22;6898;50.918;4.688;2023-07-29T03:48:22;18.10;99.90
13650;DHT22;6898;50.918;4.688;2023-07-29T03:50:51;18.00;99.90
13650;DHT22;6898;50.918;4.688;2023-07-29T03:53:19;17.90;99.90
13650;DHT22;6898;50.918;4.688;2023-07-29T03:55:47;17.90;99.90
13650;DHT22;6898;50.918;4.688;2023-07-29T03:58:17;17.90;99.90
13650;DHT22;6898;50.918;4.688;2023-07-29T04:00:45;18.00;99.90
13650;DHT22;6898;50.918;4.688;2023-07-29T04:03:13;18.00;99.90
13650;DHT22;6898;50.918;4.688;2023-07-29T04:05:44;17.90;99.90
13650;DHT22;6898;50.918;4.688;2023-07-29T04:08:12;18.10;99.90
13650;DHT22;6898;50.918;4.688;2023-07-29T04:10:40;19.40;99.90
13650;DHT22;6898;50.918;4.688;2023-07-29T04:13:09;17.90;99.90
13650;DHT22;6898;50.918;4.688;2023-07-29T04:15:37;17.90;99.90
13650;DHT22;6898;50.918;4.688;2023-07-29T04:18:05;17.90;99.90
13650;DHT22;6898;50.918;4.688;2023-07-29T04:20:34;17.90;99.90
13650;DHT22;6898;50.918;4.688;2023-07-29T04:23:04;17.90;99.90
13650;DHT22;6898;50.918;4.688;2023-07-29T04:25:32;18.00;99.90
13650;DHT22;6898;50.918;4.688;2023-07-29T04:28:00;17.90;99.90
13650;DHT22;6898;50.918;4.688;2023-07-29T04:30:30;17.90;99.90
13650;DHT22;6898;50.918;4.688;2023-07-29T04:32:58;17.90;99.90
13650;DHT22;6898;50.918;4.688;2023-07-29T04:35:27;18.50;99.90
13650;DHT22;6898;50.918;4.688;2023-07-29T04:37:55;17.90;99.90
13650;DHT22;6898;50.918;4.688;2023-07-29T04:40:25;17.80;99.90
13650;DHT22;6898;50.918;4.688;2023-07-29T04:42:53;17.80;99.90
13650;DHT22;6898;50.918;4.688;2023-07-29T04:45:22;17.80;99.90
13650;DHT22;6898;50.918;4.688;2023-07-29T04:47:51;17.80;99.90
13650;DHT22;6898;50.918;4.688;2023-07-29T04:50:19;17.80;99.90
13650;DHT22;6898;50.918;4.688;2023-07-29T04:52:48;17.80;99.90
13650;DHT22;6898;50.918;4.688;2023-07-29T04:55:16;17.90;99.90
13650;DHT22;6898;50.918;4.688;2023-07-29T04:57:46;18.00;99.90
13650;DHT22;6898;50.918;4.688;2023-07-29T05:00:14;17.90;99.90
13650;DHT22;6898;50.918;4.688;2023-07-29T05:02:42;17.80;99.90
13650;DHT22;6898;50.918;4.688;2023-07-29T05:05:11;17.80;99.90
13650;DHT22;6898;50.918;4.688;2023-07-29T05:07:39;17.80;99.90
13650;DHT22;6898;50.918;4.688;2023-07-29T05:10:08;17.80;99.90
13650;DHT22;6898;50.918;4.688;2023-07-29T05:12:36;17.80;99.90
13650;DHT22;6898;50.918;4.688;2023-07-29T05:15:08;17.50;99.90
13650;DHT22;6898;50.918;4.688;2023-07-29T05:17:37;17.70;99.90
13650;DHT22;6898;50.918;4.688;2023-07-29T05:20:07;17.80;99.90
13650;DHT22;6898;50.918;4.688;2023-07-29T05:22:35;17.80;99.90
13650;DHT22;6898;50.918;4.688;2023-07-29T05:25:04;17.70;99.90
13650;DHT22;6898;50.918;4.688;2023-07-29T05:27:33;17.80;99.90
13650;DHT22;6898;50.918;4.688;2023-07-29T05:30:01;17.80;99.90
13650;DHT22;6898;50.918;4.688;2023-07-29T05:32:31;17.90;99.90
13650;DHT22;6898;50.918;4.688;2023-07-29T05:34:59;17.90;99.90
13650;DHT22;6898;50.918;4.688;2023-07-29T05:37:28;17.90;99.90
13650;DHT22;6898;50.918;4.688;2023-07-29T05:39:56;17.90;99.90
13650;DHT22;6898;50.918;4.688;2023-07-29T05:42:24;17.90;99.90
13650;DHT22;6898;50.918;4.688;2023-07-29T05:44:53;17.90;99.90
13650;DHT22;6898;50.918;4.688;2023-07-29T05:47:21;17.90;99.90
13650;DHT22;6898;50.918;4.688;2023-07-29T05:49:51;17.90;99.90
13650;DHT22;6898;50.918;4.688;2023-07-29T05:52:20;17.90;99.90
13650;DHT22;6898;50.918;4.688;2023-07-29T05:54:48;17.90;99.90
13650;DHT22;6898;50.918;4.688;2023-07-29T05:57:16;17.90;99.90
13650;DHT22;6898;50.918;4.688;2023-07-29T05:59:45;18.00;99.90
13650;DHT22;6898;50.918;4.688;2023-07-29T06:02:14;18.10;99.90
13650;DHT22;6898;50.918;4.688;2023-07-29T06:04:43;18.30;99.90
13650;DHT22;6898;50.918;4.688;2023-07-29T06:07:12;18.30;99.90
13650;DHT22;6898;50.918;4.688;2023-07-29T06:09:41;18.30;99.90
13650;DHT22;6898;50.918;4.688;2023-07-29T06:12:09;18.30;99.90
13650;DHT22;6898;50.918;4.688;2023-07-29T06:14:37;18.40;99.90
13650;DHT22;6898;50.918;4.688;2023-07-29T06:17:06;18.40;99.90
13650;DHT22;6898;50.918;4.688;2023-07-29T06:19:34;19.50;99.90
13650;DHT22;6898;50.918;4.688;2023-07-29T06:22:03;18.50;99.90
13650;DHT22;6898;50.918;4.688;2023-07-29T06:24:34;18.50;99.90
13650;DHT22;6898;50.918;4.688;2023-07-29T06:27:02;18.50;99.90
13650;DHT22;6898;50.918;4.688;2023-07-29T06:29:31;18.40;99.90
13650;DHT22;6898;50.918;4.688;2023-07-29T06:31:59;18.40;99.90
13650;DHT22;6898;50.918;4.688;2023-07-29T06:34:27;18.50;99.90
13650;DHT22;6898;50.918;4.688;2023-07-29T06:36:56;18.50;99.90
13650;DHT22;6898;50.918;4.688;2023-07-29T06:39:24;18.60;99.90
13650;DHT22;6898;50.918;4.688;2023-07-29T06:41:54;18.60;99.90
13650;DHT22;6898;50.918;4.688;2023-07-29T06:44:22;18.60;99.90
13650;DHT22;6898;50.918;4.688;2023-07-29T06:46:51;18.70;99.90
13650;DHT22;6898;50.918;4.688;2023-07-29T06:49:19;18.70;99.90
13650;DHT22;6898;50.918;4.688;2023-07-29T06:51:47;18.80;99.90
13650;DHT22;6898;50.918;4.688;2023-07-29T06:54:16;18.80;99.90
13650;DHT22;6898;50.918;4.688;2023-07-29T06:56:45;18.90;99.90
13650;DHT22;6898;50.918;4.688;2023-07-29T06:59:14;18.90;99.90
13650;DHT22;6898;50.918;4.688;2023-07-29T07:01:43;19.00;99.90
13650;DHT22;6898;50.918;4.688;2023-07-29T07:04:11;19.00;99.90
13650;DHT22;6898;50.918;4.688;2023-07-29T07:06:39;19.10;99.90
13650;DHT22;6898;50.918;4.688;2023-07-29T07:09:08;19.20;99.90
13650;DHT22;6898;50.918;4.688;2023-07-29T07:11:36;19.30;99.90
13650;DHT22;6898;50.918;4.688;2023-07-29T07:14:04;19.40;99.90
13650;DHT22;6898;50.918;4.688;2023-07-29T07:16:34;19.40;99.90
13650;DHT22;6898;50.918;4.688;2023-07-29T07:19:04;19.40;99.90
13650;DHT22;6898;50.918;4.688;2023-07-29T07:21:33;18.20;99.90
13650;DHT22;6898;50.918;4.688;2023-07-29T07:24:01;19.50;99.90
13650;DHT22;6898;50.918;4.688;2023-07-29T07:26:30;19.50;99.90
13650;DHT22;6898;50.918;4.688;2023-07-29T07:28:58;19.50;99.90
13650;DHT22;6898;50.918;4.688;2023-07-29T07:31:26;19.40;99.90
13650;DHT22;6898;50.918;4.688;2023-07-29T07:33:56;19.40;99.90
13650;DHT22;6898;50.918;4.688;2023-07-29T07:36:25;19.40;99.90
13650;DHT22;6898;50.918;4.688;2023-07-29T07:38:53;19.50;99.90
13650;DHT22;6898;50.918;4.688;2023-07-29T07:41:22;19.40;99.90
13650;DHT22;6898;50.918;4.688;2023-07-29T07:43:51;19.40;99.90
13650;DHT22;6898;50.918;4.688;2023-07-29T07:46:19;19.40;99.90
13650;DHT22;6898;50.918;4.688;2023-07-29T07:48:47;19.30;99.90
13650;DHT22;6898;50.918;4.688;2023-07-29T07:51:17;19.40;99.90
13650;DHT22;6898;50.918;4.688;2023-07-29T07:53:45;19.40;99.90
13650;DHT22;6898;50.918;4.688;2023-07-29T07:56:14;19.40;99.90
13650;DHT22;6898;50.918;4.688;2023-07-29T07:58:43;19.40;99.90
13650;DHT22;6898;50.918;4.688;2023-07-29T08:01:11;19.40;99.90
13650;DHT22;6898;50.918;4.688;2023-07-29T08:03:40;19.40;99.90
13650;DHT22;6898;50.918;4.688;2023-07-29T08:06:08;19.50;99.90
13650;DHT22;6898;50.918;4.688;2023-07-29T08:08:38;19.60;99.90
13650;DHT22;6898;50.918;4.688;2023-07-29T08:11:07;19.70;99.90
13650;DHT22;6898;50.918;4.688;2023-07-29T08:13:35;19.80;99.90
13650;DHT22;6898;50.918;4.688;2023-07-29T08:16:03;19.80;99.90
13650;DHT22;6898;50.918;4.688;2023-07-29T08:18:32;19.90;99.90
13650;DHT22;6898;50.918;4.688;2023-07-29T08:21:01;19.90;99.90
13650;DHT22;6898;50.918;4.688;2023-07-29T08:23:32;20.10;99.90
13650;DHT22;6898;50.918;4.688;2023-07-29T08:26:03;19.90;99.90
13650;DHT22;6898;50.918;4.688;2023-07-29T08:28:35;20.20;99.90
13650;DHT22;6898;50.918;4.688;2023-07-29T08:31:04;20.30;99.90
13650;DHT22;6898;50.918;4.688;2023-07-29T08:33:34;20.10;99.90
13650;DHT22;6898;50.918;4.688;2023-07-29T08:36:02;20.00;99.90
13650;DHT22;6898;50.918;4.688;2023-07-29T08:38:31;20.10;99.90
13650;DHT22;6898;50.918;4.688;2023-07-29T08:41:06;20.20;99.90
13650;DHT22;6898;50.918;4.688;2023-07-29T08:43:43;20.30;99.90
13650;DHT22;6898;50.918;4.688;2023-07-29T08:46:12;20.40;99.90
13650;DHT22;6898;50.918;4.688;2023-07-29T08:48:43;20.50;99.90
13650;DHT22;6898;50.918;4.688;2023-07-29T08:51:12;20.60;99.90
13650;DHT22;6898;50.918;4.688;2023-07-29T08:53:41;20.50;99.90
13650;DHT22;6898;50.918;4.688;2023-07-29T08:56:11;20.60;99.90
13650;DHT22;6898;50.918;4.688;2023-07-29T08:58:41;20.70;99.90
13650;DHT22;6898;50.918;4.688;2023-07-29T09:01:10;20.80;99.90
13650;DHT22;6898;50.918;4.688;2023-07-29T09:03:38;20.80;99.90
13650;DHT22;6898;50.918;4.688;2023-07-29T09:06:07;20.90;99.90
13650;DHT22;6898;50.918;4.688;2023-07-29T09:08:36;20.90;99.90
13650;DHT22;6898;50.918;4.688;2023-07-29T09:11:05;21.10;99.90
13650;DHT22;6898;50.918;4.688;2023-07-29T09:13:36;21.00;99.90
13650;DHT22;6898;50.918;4.688;2023-07-29T09:16:05;21.10;99.90
13650;DHT22;6898;50.918;4.688;2023-07-29T09:18:34;21.40;99.90
13650;DHT22;6898;50.918;4.688;2023-07-29T09:21:03;21.80;99.90
13650;DHT22;6898;50.918;4.688;2023-07-29T09:23:39;23.60;99.90
13650;DHT22;6898;50.918;4.688;2023-07-29T09:26:08;22.10;99.90
13650;DHT22;6898;50.918;4.688;2023-07-29T09:28:39;22.10;99.90
13650;DHT22;6898;50.918;4.688;2023-07-29T09:31:19;22.30;99.90
13650;DHT22;6898;50.918;4.688;2023-07-29T09:33:48;22.30;99.90
13650;DHT22;6898;50.918;4.688;2023-07-29T09:36:16;22.40;99.90
13650;DHT22;6898;50.918;4.688;2023-07-29T09:38:45;22.30;99.90
13650;DHT22;6898;50.918;4.688;2023-07-29T09:41:15;22.20;99.90
13650;DHT22;6898;50.918;4.688;2023-07-29T09:43:45;22.30;99.90
13650;DHT22;6898;50.918;4.688;2023-07-29T09:46:13;22.40;99.90
13650;DHT22;6898;50.918;4.688;2023-07-29T09:48:42;22.50;99.90
13650;DHT22;6898;50.918;4.688;2023-07-29T09:51:13;22.40;99.90
13650;DHT22;6898;50.918;4.688;2023-07-29T09:53:43;22.40;99.90
13650;DHT22;6898;50.918;4.688;2023-07-29T09:56:13;22.50;99.90
13650;DHT22;6898;50.918;4.688;2023-07-29T09:58:45;22.40;99.90
13650;DHT22;6898;50.918;4.688;2023-07-29T10:01:14;22.40;99.90
13650;DHT22;6898;50.918;4.688;2023-07-29T10:03:43;23.40;99.90
13650;DHT22;6898;50.918;4.688;2023-07-29T10:06:13;22.10;99.90
13650;DHT22;6898;50.918;4.688;2023-07-29T10:08:43;22.00;99.90
13650;DHT22;6898;50.918;4.688;2023-07-29T10:11:11;21.90;99.90
13650;DHT22;6898;50.918;4.688;2023-07-29T10:13:40;21.90;99.90
13650;DHT22;6898;50.918;4.688;2023-07-29T10:16:12;21.80;99.90
13650;DHT22;6898;50.918;4.688;2023-07-29T10:18:41;21.80;99.90
13650;DHT22;6898;50.918;4.688;2023-07-29T10:21:11;21.90;99.90
13650;DHT22;6898;50.918;4.688;2023-07-29T10:23:43;22.10;99.90
13650;DHT22;6898;50.918;4.688;2023-07-29T10:26:16;22.20;99.90
13650;DHT22;6898;50.918;4.688;2023-07-29T10:28:48;22.20;99.90
13650;DHT22;6898;50.918;4.688;2023-07-29T10:31:22;22.20;99.90
13650;DHT22;6898;50.918;4.688;2023-07-29T10:33:51;22.20;99.90
13650;DHT22;6898;50.918;4.688;2023-07-29T10:36:20;22.30;99.90
13650;DHT22;6898;50.918;4.688;2023-07-29T10:38:49;22.30;99.90
13650;DHT22;6898;50.918;4.688;2023-07-29T10:41:18;22.30;99.90
13650;DHT22;6898;50.918;4.688;2023-07-29T10:43:46;22.50;99.90
13650;DHT22;6898;50.918;4.688;2023-07-29T10:46:16;22.50;99.90
13650;DHT22;6898;50.918;4.688;2023-07-29T10:48:53;22.40;99.90
13650;DHT22;6898;50.918;4.688;2023-07-29T10:51:26;22.10;99.90
13650;DHT22;6898;50.918;4.688;2023-07-29T10:53:57;21.80;99.90
13650;DHT22;6898;50.918;4.688;2023-07-29T10:56:30;21.40;99.90
13650;DHT22;6898;50.918;4.688;2023-07-29T10:59:22;21.00;99.90
13650;DHT22;6898;50.918;4.688;2023-07-29T11:01:54;20.80;99.90
13650;DHT22;6898;50.918;4.688;2023-07-29T11:04:28;20.60;99.90
13650;DHT22;6898;50.918;4.688;2023-07-29T11:07:23;20.70;99.90
13650;DHT22;6898;50.918;4.688;2023-07-29T11:10:01;20.50;99.90
13650;DHT22;6898;50.918;4.688;2023-07-29T11:12:37;20.40;99.90
13650;DHT22;6898;50.918;4.688;2023-07-29T11:15:16;20.50;99.90
13650;DHT22;6898;50.918;4.688;2023-07-29T11:17:46;20.60;99.90
13650;DHT22;6898;50.918;4.688;2023-07-29T11:20:17;20.80;99.90
13650;DHT22;6898;50.918;4.688;2023-07-29T11:22:46;20.90;99.90
13650;DHT22;6898;50.918;4.688;2023-07-29T11:25:16;21.10;99.90
13650;DHT22;6898;50.918;4.688;2023-07-29T11:27:45;21.20;99.90
13650;DHT22;6898;50.918;4.688;2023-07-29T11:30:15;21.20;99.90
13650;DHT22;6898;50.918;4.688;2023-07-29T11:32:45;21.30;99.90
13650;DHT22;6898;50.918;4.688;2023-07-29T11:35:16;21.30;99.90
13650;DHT22;6898;50.918;4.688;2023-07-29T11:37:46;21.50;99.90
13650;DHT22;6898;50.918;4.688;2023-07-29T11:40:16;21.70;99.90
13650;DHT22;6898;50.918;4.688;2023-07-29T11:42:45;22.10;99.90
13650;DHT22;6898;50.918;4.688;2023-07-29T11:45:15;22.50;99.90
13650;DHT22;6898;50.918;4.688;2023-07-29T11:47:44;22.90;99.90
13650;DHT22;6898;50.918;4.688;2023-07-29T11:50:15;23.10;99.90
13650;DHT22;6898;50.918;4.688;2023-07-29T11:52:45;23.20;99.90
13650;DHT22;6898;50.918;4.688;2023-07-29T11:55:15;23.60;99.90
13650;DHT22;6898;50.918;4.688;2023-07-29T11:57:43;24.30;99.90
13650;DHT22;6898;50.918;4.688;2023-07-29T12:00:12;23.80;99.90
13650;DHT22;6898;50.918;4.688;2023-07-29T12:02:43;23.60;99.90
13650;DHT22;6898;50.918;4.688;2023-07-29T12:05:15;23.30;99.90
13650;DHT22;6898;50.918;4.688;2023-07-29T12:07:45;22.80;99.90
13650;DHT22;6898;50.918;4.688;2023-07-29T12:10:14;22.80;99.90
13650;DHT22;6898;50.918;4.688;2023-07-29T12:12:46;23.00;99.90
13650;DHT22;6898;50.918;4.688;2023-07-29T12:15:23;23.60;99.90
13650;DHT22;6898;50.918;4.688;2023-07-29T12:17:56;24.00;99.90
13650;DHT22;6898;50.918;4.688;2023-07-29T12:20:26;24.10;99.90
13650;DHT22;6898;50.918;4.688;2023-07-29T12:22:57;24.30;99.90
13650;DHT22;6898;50.918;4.688;2023-07-29T12:25:26;24.40;99.90
13650;DHT22;6898;50.918;4.688;2023-07-29T12:27:55;24.10;99.90
13650;DHT22;6898;50.918;4.688;2023-07-29T12:30:25;23.60;99.90
13650;DHT22;6898;50.918;4.688;2023-07-29T12:32:57;23.10;99.90
13650;DHT22;6898;50.918;4.688;2023-07-29T12:35:35;22.70;99.90
13650;DHT22;6898;50.918;4.688;2023-07-29T12:38:05;22.40;99.90
13650;DHT22;6898;50.918;4.688;2023-07-29T12:40:38;22.30;99.90
13650;DHT22;6898;50.918;4.688;2023-07-29T12:43:09;22.00;99.90
13650;DHT22;6898;50.918;4.688;2023-07-29T12:45:37;21.20;99.90
13650;DHT22;6898;50.918;4.688;2023-07-29T12:48:07;21.00;99.90
13650;DHT22;6898;50.918;4.688;2023-07-29T12:50:37;20.70;99.90
13650;DHT22;6898;50.918;4.688;2023-07-29T12:53:07;20.50;99.90
13650;DHT22;6898;50.918;4.688;2023-07-29T12:55:37;20.40;99.90
13650;DHT22;6898;50.918;4.688;2023-07-29T12:58:05;20.40;99.90
13650;DHT22;6898;50.918;4.688;2023-07-29T13:00:34;20.40;99.90
13650;DHT22;6898;50.918;4.688;2023-07-29T13:03:02;20.60;99.90
13650;DHT22;6898;50.918;4.688;2023-07-29T13:05:32;20.80;99.90
13650;DHT22;6898;50.918;4.688;2023-07-29T13:08:02;21.10;99.90
13650;DHT22;6898;50.918;4.688;2023-07-29T13:10:31;21.40;99.90
13650;DHT22;6898;50.918;4.688;2023-07-29T13:12:59;21.70;99.90
13650;DHT22;6898;50.918;4.688;2023-07-29T13:15:28;21.80;99.90
13650;DHT22;6898;50.918;4.688;2023-07-29T13:17:56;21.90;99.90
13650;DHT22;6898;50.918;4.688;2023-07-29T13:20:24;22.20;99.90
13650;DHT22;6898;50.918;4.688;2023-07-29T13:22:53;22.30;99.90
13650;DHT22;6898;50.918;4.688;2023-07-29T13:25:23;22.50;99.90
13650;DHT22;6898;50.918;4.688;2023-07-29T13:27:51;22.80;99.90
13650;DHT22;6898;50.918;4.688;2023-07-29T13:30:20;22.90;99.90
13650;DHT22;6898;50.918;4.688;2023-07-29T13:32:48;22.90;99.90
13650;DHT22;6898;50.918;4.688;2023-07-29T13:35:16;23.10;99.90
13650;DHT22;6898;50.918;4.688;2023-07-29T13:37:45;23.00;99.90
13650;DHT22;6898;50.918;4.688;2023-07-29T13:40:14;23.40;99.90
13650;DHT22;6898;50.918;4.688;2023-07-29T13:42:43;22.80;99.90
13650;DHT22;6898;50.918;4.688;2023-07-29T13:45:12;22.80;99.90
13650;DHT22;6898;50.918;4.688;2023-07-29T13:47:40;22.90;99.90
13650;DHT22;6898;50.918;4.688;2023-07-29T13:50:09;23.20;99.90
13650;DHT22;6898;50.918;4.688;2023-07-29T13:52:38;23.10;99.90
13650;DHT22;6898;50.918;4.688;2023-07-29T13:55:07;23.30;99.90
13650;DHT22;6898;50.918;4.688;2023-07-29T13:57:37;23.40;99.90
13650;DHT22;6898;50.918;4.688;2023-07-29T14:00:08;23.40;99.90
13650;DHT22;6898;50.918;4.688;2023-07-29T14:02:36;23.40;99.90
13650;DHT22;6898;50.918;4.688;2023-07-29T14:05:05;23.50;99.90
13650;DHT22;6898;50.918;4.688;2023-07-29T14:07:34;23.60;99.90
13650;DHT22;6898;50.918;4.688;2023-07-29T14:10:03;23.70;99.90
13650;DHT22;6898;50.918;4.688;2023-07-29T14:12:32;23.80;99.90
13650;DHT22;6898;50.918;4.688;2023-07-29T14:15:00;23.90;99.90
13650;DHT22;6898;50.918;4.688;2023-07-29T14:17:31;23.70;99.90
13650;DHT22;6898;50.918;4.688;2023-07-29T14:19:59;23.70;99.90
13650;DHT22;6898;50.918;4.688;2023-07-29T14:22:28;23.80;99.90
13650;DHT22;6898;50.918;4.688;2023-07-29T14:24:56;23.70;99.90
13650;DHT22;6898;50.918;4.688;2023-07-29T14:27:26;23.50;99.90
13650;DHT22;6898;50.918;4.688;2023-07-29T14:29:55;23.60;99.90
13650;DHT22;6898;50.918;4.688;2023-07-29T14:32:23;23.50;99.90
13650;DHT22;6898;50.918;4.688;2023-07-29T14:34:53;23.50;99.90
13650;DHT22;6898;50.918;4.688;2023-07-29T14:37:22;23.70;99.90
13650;DHT22;6898;50.918;4.688;2023-07-29T14:39:50;23.90;99.90
13650;DHT22;6898;50.918;4.688;2023-07-29T15:44:31;24.10;99.90
13650;DHT22;6898;50.918;4.688;2023-07-29T15:49:28;24.50;99.90
13650;DHT22;6898;50.918;4.688;2023-07-29T15:51:56;23.80;99.90
13650;DHT22;6898;50.918;4.688;2023-07-29T15:54:24;24.10;99.90
13650;DHT22;6898;50.918;4.688;2023-07-29T15:56:55;24.10;99.90
13650;DHT22;6898;50.918;4.688;2023-07-29T15:59:23;24.10;99.90
13650;DHT22;6898;50.918;4.688;2023-07-29T16:01:55;24.20;99.90
13650;DHT22;6898;50.918;4.688;2023-07-29T16:04:24;24.40;99.90
13650;DHT22;6898;50.918;4.688;2023-07-29T16:09:21;24.20;99.90
13650;DHT22;6898;50.918;4.688;2023-07-29T18:26:15;23.90;99.90
